createdAt,value
2018-10-09T00:00:10.659Z,14.02
2018-10-09T00:03:14.102Z,13.91
2018-10-09T00:06:17.554Z,13.81
2018-10-09T00:09:21.025Z,13.80
2018-10-09T00:12:24.548Z,13.80
2018-10-09T00:15:27.999Z,13.75
2018-10-09T00:18:31.450Z,13.76
2018-10-09T00:21:34.949Z,13.77
2018-10-09T00:24:38.514Z,13.80
2018-10-09T00:27:41.931Z,13.78
2018-10-09T00:30:45.321Z,13.82
2018-10-09T00:33:48.774Z,13.78
2018-10-09T00:36:52.232Z,13.79
2018-10-09T00:39:55.633Z,13.83
2018-10-09T00:42:59.028Z,13.94
2018-10-09T00:46:02.470Z,13.99
2018-10-09T00:49:06.587Z,14.06
2018-10-09T00:52:10.064Z,14.06
2018-10-09T00:55:13.559Z,14.07
2018-10-09T00:58:16.929Z,14.11
2018-10-09T01:01:20.468Z,14.12
2018-10-09T01:04:23.965Z,14.10
2018-10-09T01:07:27.366Z,14.10
2018-10-09T01:10:30.750Z,14.14
2018-10-09T01:13:34.235Z,14.15
2018-10-09T01:16:37.661Z,14.08
2018-10-09T01:19:41.110Z,14.01
2018-10-09T01:22:44.558Z,13.99
2018-10-09T01:25:47.976Z,13.97
2018-10-09T01:28:51.384Z,13.98
2018-10-09T01:31:54.830Z,14.01
2018-10-09T01:34:58.312Z,14.02
2018-10-09T01:38:01.892Z,14.04
2018-10-09T01:41:05.290Z,14.03
2018-10-09T01:44:08.714Z,14.02
2018-10-09T01:47:12.149Z,14.01
2018-10-09T01:50:15.579Z,13.97
2018-10-09T01:53:19.000Z,13.94
2018-10-09T01:56:22.392Z,13.90
2018-10-09T01:59:25.775Z,13.90
2018-10-09T02:02:29.137Z,13.93
2018-10-09T02:05:32.840Z,13.89
2018-10-09T02:08:36.292Z,13.85
2018-10-09T02:11:39.734Z,13.76
2018-10-09T02:14:43.172Z,13.61
2018-10-09T02:17:46.574Z,13.57
2018-10-09T02:20:49.968Z,13.62
2018-10-09T02:23:53.370Z,13.68
2018-10-09T02:26:56.790Z,13.72
2018-10-09T02:30:00.225Z,13.71
2018-10-09T02:33:03.802Z,13.64
2018-10-09T02:36:07.192Z,13.47
2018-10-09T02:39:11.737Z,13.25
2018-10-09T02:42:15.132Z,13.09
2018-10-09T02:45:18.506Z,13.02
2018-10-09T02:48:22.009Z,12.96
2018-10-09T02:51:25.585Z,13.04
2018-10-09T02:54:29.078Z,13.08
2018-10-09T02:57:32.615Z,13.10
2018-10-09T03:01:39.367Z,13.10
2018-10-09T03:04:42.898Z,13.14
2018-10-09T03:07:46.427Z,13.17
2018-10-09T03:10:49.894Z,13.15
2018-10-09T03:13:53.420Z,13.12
2018-10-09T03:16:56.937Z,13.10
2018-10-09T03:20:00.446Z,13.09
2018-10-09T03:23:03.990Z,13.10
2018-10-09T03:26:07.780Z,13.07
2018-10-09T03:29:11.271Z,13.00
2018-10-09T03:32:14.735Z,12.95
2018-10-09T03:35:18.209Z,12.90
2018-10-09T03:38:21.744Z,12.89
2018-10-09T03:41:25.244Z,12.86
2018-10-09T03:44:28.793Z,12.76
2018-10-09T03:47:32.257Z,12.73
2018-10-09T03:50:35.747Z,12.61
2018-10-09T03:53:39.286Z,12.51
2018-10-09T03:56:42.752Z,12.48
2018-10-09T03:59:46.258Z,12.44
2018-10-09T04:02:49.759Z,12.48
2018-10-09T04:05:53.256Z,12.56
2018-10-09T04:08:56.823Z,12.67
2018-10-09T04:12:00.300Z,12.73
2018-10-09T04:15:03.845Z,12.72
2018-10-09T04:18:07.348Z,12.72
2018-10-09T04:21:10.858Z,12.71
2018-10-09T04:24:14.378Z,12.71
2018-10-09T04:27:18.117Z,12.70
2018-10-09T04:30:21.635Z,12.74
2018-10-09T04:33:25.060Z,12.77
2018-10-09T04:36:28.586Z,12.79
2018-10-09T04:39:32.227Z,12.81
2018-10-09T04:42:35.687Z,12.81
2018-10-09T04:45:39.573Z,12.87
2018-10-09T04:48:43.024Z,12.89
2018-10-09T04:51:46.497Z,12.91
2018-10-09T04:54:50.020Z,12.88
2018-10-09T04:57:53.906Z,12.82
2018-10-09T05:00:57.312Z,12.76
2018-10-09T05:04:00.860Z,12.67
2018-10-09T05:07:04.349Z,12.70
2018-10-09T05:10:08.574Z,12.77
2018-10-09T05:13:12.093Z,12.80
2018-10-09T05:16:15.565Z,12.69
2018-10-09T05:19:19.051Z,12.52
2018-10-09T05:22:22.682Z,12.26
2018-10-09T05:25:26.278Z,11.98
2018-10-09T05:28:29.778Z,11.63
2018-10-09T05:31:33.617Z,11.43
2018-10-09T05:34:37.074Z,11.38
2018-10-09T05:37:40.617Z,11.42
2018-10-09T05:40:44.190Z,11.47
2018-10-09T05:43:47.698Z,11.54
2018-10-09T05:46:51.261Z,11.61
2018-10-09T05:49:54.882Z,11.66
2018-10-09T05:52:58.292Z,11.65
2018-10-09T05:56:01.700Z,11.64
2018-10-09T05:59:05.137Z,11.62
2018-10-09T06:02:09.165Z,11.63
2018-10-09T06:05:12.603Z,11.57
2018-10-09T06:08:16.036Z,11.58
2018-10-09T06:11:19.591Z,11.60
2018-10-09T06:14:23.085Z,11.57
2018-10-09T06:17:26.591Z,11.55
2018-10-09T06:20:30.030Z,11.49
2018-10-09T06:23:33.431Z,11.37
2018-10-09T06:26:36.824Z,11.40
2018-10-09T06:29:40.435Z,11.49
2018-10-09T06:32:44.666Z,11.60
2018-10-09T06:35:49.159Z,11.72
2018-10-09T06:38:52.510Z,11.88
2018-10-09T06:41:55.941Z,12.00
2018-10-09T06:44:59.436Z,12.12
2018-10-09T06:48:02.858Z,12.23
2018-10-09T06:51:06.389Z,12.34
2018-10-09T06:54:09.935Z,12.49
2018-10-09T06:57:13.365Z,12.64
2018-10-09T07:00:16.832Z,12.77
2018-10-09T07:03:20.289Z,12.96
2018-10-09T07:06:23.807Z,13.13
2018-10-09T07:09:27.391Z,13.32
2018-10-09T07:12:30.706Z,13.41
2018-10-09T07:15:34.170Z,13.45
2018-10-09T07:18:37.582Z,13.56
2018-10-09T07:21:40.976Z,13.69
2018-10-09T07:24:44.416Z,13.78
2018-10-09T07:27:47.968Z,13.84
2018-10-09T07:30:51.602Z,13.95
2018-10-09T07:33:55.063Z,14.10
2018-10-09T07:36:58.546Z,14.27
2018-10-09T07:40:02.058Z,14.36
2018-10-09T07:43:05.522Z,14.47
2018-10-09T07:46:08.950Z,14.65
2018-10-09T07:49:12.578Z,14.78
2018-10-09T07:52:16.053Z,14.91
2018-10-09T07:55:19.544Z,15.07
2018-10-09T07:58:22.969Z,15.14
2018-10-09T08:01:26.433Z,15.17
2018-10-09T08:04:29.853Z,15.22
2018-10-09T08:07:33.347Z,15.29
2018-10-09T08:10:36.951Z,15.45
2018-10-09T08:13:40.498Z,15.54
2018-10-09T08:16:45.051Z,15.65
2018-10-09T08:19:48.516Z,15.82
2018-10-09T08:22:52.148Z,15.99
2018-10-09T08:25:55.591Z,16.09
2018-10-09T08:28:59.119Z,16.19
2018-10-09T08:32:02.626Z,16.30
2018-10-09T08:35:06.433Z,16.50
2018-10-09T08:38:09.874Z,16.66
2018-10-09T08:41:13.271Z,16.77
2018-10-09T08:44:16.695Z,16.89
2018-10-09T08:47:20.116Z,16.96
2018-10-09T08:50:23.623Z,17.06
2018-10-09T08:53:26.984Z,17.15
2018-10-09T08:56:30.384Z,17.23
2018-10-09T08:59:33.889Z,17.23
2018-10-09T09:02:37.365Z,17.34
2018-10-09T09:05:40.766Z,17.48
2018-10-09T09:08:44.285Z,17.60
2018-10-09T09:11:47.693Z,17.64
2018-10-09T09:14:51.229Z,17.49
2018-10-09T09:17:54.673Z,17.64
2018-10-09T09:20:58.269Z,17.75
2018-10-09T09:24:02.334Z,17.74
2018-10-09T09:27:05.912Z,17.84
2018-10-09T09:30:09.334Z,17.80
2018-10-09T09:33:12.752Z,17.85
2018-10-09T09:36:16.283Z,18.09
2018-10-09T09:39:19.631Z,18.01
2018-10-09T09:42:23.017Z,18.12
2018-10-09T09:45:26.512Z,18.33
2018-10-09T09:48:29.964Z,18.35
2018-10-09T09:51:33.401Z,18.18
2018-10-09T09:54:37.000Z,18.25
2018-10-09T09:57:40.549Z,18.51
2018-10-09T10:00:49.309Z,18.65
2018-10-09T10:03:52.784Z,18.84
2018-10-09T10:06:56.258Z,18.88
2018-10-09T10:09:59.580Z,18.94
2018-10-09T10:13:03.122Z,18.97
2018-10-09T10:16:06.721Z,19.15
2018-10-09T10:19:10.324Z,19.14
2018-10-09T10:22:13.980Z,19.11
2018-10-09T10:25:17.482Z,19.23
2018-10-09T10:28:21.004Z,19.60
2018-10-09T10:31:24.493Z,20.01
2018-10-09T10:34:27.982Z,19.98
2018-10-09T10:37:31.417Z,20.12
2018-10-09T10:40:34.909Z,20.36
2018-10-09T10:43:38.396Z,20.52
2018-10-09T10:46:42.528Z,20.35
2018-10-09T10:49:46.030Z,20.21
2018-10-09T10:52:49.496Z,20.39
2018-10-09T10:55:53.335Z,20.53
2018-10-09T10:58:56.812Z,20.58
2018-10-09T11:02:00.318Z,20.42
2018-10-09T11:05:03.849Z,20.55
2018-10-09T11:08:08.445Z,20.59
2018-10-09T11:11:11.979Z,20.73
2018-10-09T11:14:16.796Z,20.88
2018-10-09T11:17:20.379Z,20.55
2018-10-09T11:20:23.761Z,20.47
2018-10-09T11:23:27.811Z,20.61
2018-10-09T11:26:31.375Z,20.86
2018-10-09T11:29:34.950Z,20.94
2018-10-09T11:32:38.562Z,20.96
2018-10-09T11:35:41.970Z,21.04
2018-10-09T11:38:45.514Z,21.08
2018-10-09T11:41:49.075Z,21.12
2018-10-09T11:44:52.533Z,20.99
2018-10-09T11:47:56.045Z,21.11
2018-10-09T11:50:59.600Z,21.07
2018-10-09T11:54:03.119Z,21.07
2018-10-09T11:57:06.698Z,20.89
2018-10-09T12:00:10.201Z,20.89
2018-10-09T12:03:13.758Z,20.94
2018-10-09T12:06:17.714Z,20.99
2018-10-09T12:09:21.215Z,21.08
2018-10-09T12:12:24.803Z,21.14
2018-10-09T12:15:28.377Z,21.02
2018-10-09T12:18:32.020Z,20.93
2018-10-09T12:21:36.074Z,20.82
2018-10-09T12:24:39.607Z,20.89
2018-10-09T12:27:43.265Z,20.91
2018-10-09T12:30:47.731Z,20.76
2018-10-09T12:33:51.286Z,20.69
2018-10-09T12:36:54.784Z,20.71
2018-10-09T12:39:58.245Z,20.59
2018-10-09T12:43:01.728Z,20.57
2018-10-09T12:46:05.135Z,20.58
2018-10-09T12:49:08.953Z,20.62
2018-10-09T12:52:12.457Z,20.75
2018-10-09T12:55:16.034Z,20.77
2018-10-09T12:58:19.572Z,20.75
2018-10-09T13:01:23.162Z,20.81
2018-10-09T13:04:26.540Z,20.92
2018-10-09T13:07:29.929Z,21.07
2018-10-09T13:10:33.365Z,21.22
2018-10-09T13:13:36.757Z,21.33
2018-10-09T13:16:40.111Z,21.38
2018-10-09T13:19:43.528Z,21.44
2018-10-09T13:22:46.985Z,21.53
2018-10-09T13:25:50.316Z,21.54
2018-10-09T13:28:53.740Z,21.51
2018-10-09T13:31:57.141Z,21.48
2018-10-09T13:35:00.528Z,21.55
2018-10-09T13:38:04.022Z,21.57
2018-10-09T13:41:07.513Z,21.66
2018-10-09T13:44:10.964Z,21.77
2018-10-09T13:47:14.395Z,21.79
2018-10-09T13:50:17.788Z,21.90
2018-10-09T13:53:21.143Z,21.99
2018-10-09T13:56:24.635Z,22.09
2018-10-09T13:59:28.018Z,22.05
2018-10-09T14:02:31.428Z,22.07
2018-10-09T14:05:34.846Z,22.05
2018-10-09T14:08:38.220Z,22.12
2018-10-09T14:11:42.655Z,22.31
2018-10-09T14:14:46.045Z,22.55
2018-10-09T14:17:49.465Z,22.67
2018-10-09T14:20:52.877Z,22.62
2018-10-09T14:23:56.393Z,22.62
2018-10-09T14:26:59.762Z,22.59
2018-10-09T14:30:03.232Z,22.51
2018-10-09T14:33:06.761Z,22.33
2018-10-09T14:36:10.181Z,22.32
2018-10-09T14:39:13.549Z,22.39
2018-10-09T14:42:17.506Z,22.37
2018-10-09T14:45:21.039Z,22.48
2018-10-09T14:48:24.443Z,22.53
2018-10-09T14:51:27.869Z,22.47
2018-10-09T14:54:31.375Z,22.50
2018-10-09T14:57:34.867Z,22.48
2018-10-09T15:00:38.364Z,22.42
2018-10-09T15:03:41.896Z,22.38
2018-10-09T15:06:45.388Z,22.32
2018-10-09T15:09:48.980Z,22.27
2018-10-09T15:12:52.512Z,22.20
2018-10-09T15:15:56.068Z,22.16
2018-10-09T15:18:59.582Z,22.13
2018-10-09T15:22:03.012Z,22.14
2018-10-09T15:25:06.526Z,22.19
2018-10-09T15:28:10.185Z,22.16
2018-10-09T15:31:13.667Z,22.17
2018-10-09T15:34:17.112Z,22.20
2018-10-09T15:37:20.692Z,22.27
2018-10-09T15:40:24.162Z,22.17
2018-10-09T15:43:27.605Z,22.15
2018-10-09T15:46:31.119Z,22.01
2018-10-09T15:49:34.624Z,21.88
2018-10-09T15:52:38.171Z,21.83
2018-10-09T15:55:41.626Z,21.81
2018-10-09T15:58:45.041Z,21.88
2018-10-09T16:01:48.675Z,21.81
2018-10-09T16:04:52.238Z,21.76
2018-10-09T16:07:55.659Z,21.65
2018-10-09T16:10:59.332Z,21.57
2018-10-09T16:14:03.154Z,21.55
2018-10-09T16:17:07.124Z,21.55
2018-10-09T16:20:10.897Z,21.48
2018-10-09T16:23:14.481Z,21.36
2018-10-09T16:26:18.007Z,21.28
2018-10-09T16:29:21.483Z,21.22
2018-10-09T16:32:25.037Z,21.13
2018-10-09T16:35:28.365Z,20.97
2018-10-09T16:38:31.787Z,20.72
2018-10-09T16:41:35.189Z,20.49
2018-10-09T16:44:38.668Z,20.40
2018-10-09T16:47:42.083Z,20.34
2018-10-09T16:50:45.492Z,20.16
2018-10-09T16:53:48.993Z,19.97
2018-10-09T16:56:52.397Z,19.82
2018-10-09T16:59:55.911Z,19.74
2018-10-09T17:02:59.434Z,19.75
2018-10-09T17:06:02.902Z,19.68
2018-10-09T17:09:08.941Z,19.67
2018-10-09T17:12:12.364Z,19.71
2018-10-09T17:15:15.904Z,19.75
2018-10-09T17:18:20.322Z,19.78
2018-10-09T17:21:23.786Z,19.78
2018-10-09T17:24:27.228Z,19.71
2018-10-09T17:27:30.731Z,19.60
2018-10-09T17:30:34.204Z,19.43
2018-10-09T17:33:37.823Z,19.33
2018-10-09T17:36:41.745Z,19.22
2018-10-09T17:39:45.222Z,19.12
2018-10-09T17:42:48.616Z,19.06
2018-10-09T17:45:52.017Z,18.90
2018-10-09T17:48:55.495Z,18.77
2018-10-09T17:51:58.889Z,18.76
2018-10-09T17:55:02.328Z,18.72
2018-10-09T17:58:05.754Z,18.64
2018-10-09T18:01:09.226Z,18.51
2018-10-09T18:04:12.627Z,18.42
2018-10-09T18:07:16.805Z,18.36
2018-10-09T18:10:20.304Z,18.32
2018-10-09T18:13:23.760Z,18.26
2018-10-09T18:16:27.160Z,18.21
2018-10-09T18:19:30.566Z,18.14
2018-10-09T18:22:34.004Z,18.12
2018-10-09T18:25:37.475Z,18.05
2018-10-09T18:28:40.915Z,18.01
2018-10-09T18:31:44.422Z,17.89
2018-10-09T18:34:48.009Z,17.79
2018-10-09T18:37:51.487Z,17.69
2018-10-09T18:40:55.281Z,17.56
2018-10-09T18:43:58.569Z,17.54
2018-10-09T18:47:02.060Z,17.52
2018-10-09T18:50:05.599Z,17.46
2018-10-09T18:53:09.179Z,17.44
2018-10-09T18:56:12.609Z,17.40
2018-10-09T18:59:15.968Z,17.30
2018-10-09T19:02:19.362Z,17.28
2018-10-09T19:05:23.238Z,17.25
2018-10-09T19:08:26.758Z,17.18
2018-10-09T19:11:30.226Z,17.17
2018-10-09T19:14:33.759Z,17.15
2018-10-09T19:17:37.245Z,17.13
2018-10-09T19:20:40.693Z,17.13
2018-10-09T19:23:44.184Z,17.18
2018-10-09T19:26:47.602Z,17.28
2018-10-09T19:29:51.153Z,17.30
2018-10-09T19:32:54.582Z,17.27
2018-10-09T19:35:58.104Z,17.24
2018-10-09T19:39:01.643Z,17.22
2018-10-09T19:42:05.170Z,17.18
2018-10-09T19:45:08.649Z,17.12
2018-10-09T19:48:12.145Z,17.07
2018-10-09T19:51:15.603Z,17.05
2018-10-09T19:54:19.107Z,17.05
2018-10-09T19:57:22.627Z,17.01
2018-10-09T20:00:26.117Z,16.91
2018-10-09T20:03:29.574Z,16.87
2018-10-09T20:06:33.355Z,16.83
2018-10-09T20:09:37.032Z,16.83
2018-10-09T20:12:40.560Z,16.83
2018-10-09T20:15:44.100Z,16.82
2018-10-09T20:18:47.669Z,16.78
2018-10-09T20:21:51.148Z,16.78
2018-10-09T20:24:54.746Z,16.75
2018-10-09T20:27:58.280Z,16.74
2018-10-09T20:31:02.132Z,16.69
2018-10-09T20:34:05.735Z,16.67
2018-10-09T20:37:09.278Z,16.65
2018-10-09T20:40:12.901Z,16.67
2018-10-09T20:43:16.450Z,16.67
2018-10-09T20:46:20.117Z,16.66
2018-10-09T20:49:23.598Z,16.63
2018-10-09T20:52:27.103Z,16.61
2018-10-09T20:55:30.615Z,16.58
2018-10-09T20:58:34.176Z,16.57
2018-10-09T21:01:37.920Z,16.52
2018-10-09T21:04:41.540Z,16.50
2018-10-09T21:07:45.048Z,16.50
2018-10-09T21:10:48.631Z,16.48
2018-10-09T21:13:52.154Z,16.39
2018-10-09T21:16:55.964Z,16.35
2018-10-09T21:19:59.736Z,16.37
2018-10-09T21:23:04.642Z,16.35
2018-10-09T21:26:08.312Z,16.32
2018-10-09T21:29:11.908Z,16.26
2018-10-09T21:32:15.425Z,16.23
2018-10-09T21:35:19.005Z,16.18
2018-10-09T21:38:22.547Z,16.18
2018-10-09T21:41:26.078Z,16.12
2018-10-09T21:44:29.536Z,16.07
2018-10-09T21:47:32.985Z,16.05
2018-10-09T21:50:36.641Z,16.03
2018-10-09T21:53:40.451Z,16.01
2018-10-09T21:56:44.006Z,15.96
2018-10-09T21:59:48.090Z,15.90
2018-10-09T22:02:51.588Z,15.88
2018-10-09T22:05:55.255Z,15.84
2018-10-09T22:08:58.858Z,15.76
2018-10-09T22:12:02.399Z,15.73
2018-10-09T22:15:08.095Z,15.71
2018-10-09T22:18:11.516Z,15.68
2018-10-09T22:21:15.197Z,15.70
2018-10-09T22:24:18.756Z,15.69
2018-10-09T22:27:22.488Z,15.69
2018-10-09T22:30:26.059Z,15.69
2018-10-09T22:33:29.592Z,15.66
2018-10-09T22:36:33.498Z,15.64
2018-10-09T22:39:36.998Z,15.63
2018-10-09T22:42:41.533Z,15.68
2018-10-09T22:45:45.047Z,15.64
2018-10-09T22:48:48.513Z,15.59
2018-10-09T22:51:53.055Z,15.51
2018-10-09T22:54:56.557Z,15.48
2018-10-09T22:58:00.056Z,15.43
2018-10-09T23:01:03.542Z,15.34
2018-10-09T23:04:07.211Z,15.35
2018-10-09T23:07:10.844Z,15.37
2018-10-09T23:10:14.389Z,15.37
2018-10-09T23:13:17.999Z,15.37
2018-10-09T23:16:21.567Z,15.34
2018-10-09T23:19:25.067Z,15.20
2018-10-09T23:22:28.582Z,15.08
2018-10-09T23:25:32.072Z,14.98
2018-10-09T23:28:35.603Z,15.00
2018-10-09T23:31:39.142Z,14.98
2018-10-09T23:34:42.700Z,15.01
2018-10-09T23:37:46.202Z,15.02
2018-10-09T23:40:49.735Z,15.05
2018-10-09T23:43:53.323Z,15.09
2018-10-09T23:46:56.823Z,15.12
2018-10-09T23:50:00.378Z,15.08
2018-10-09T23:53:04.056Z,15.07
2018-10-09T23:56:07.631Z,15.09
2018-10-09T23:59:11.187Z,15.09
